QTR1711 EGNX-KMIA
Flight info
| Callsign | QTR1711 |
|---|---|
| Flight time | N/A |
| Altitude | 34000 |
| Route | TNT Q4 VABKA UL8 TADAL UL70 PENIL M144 BAGSO DCT PELIG DCT XETBO DCT LIMRI/M084F340 DCT 51N020W 49N030W 46N040W 43N050W DCT SOORY M204 SUMRS/N0494F340 BNFSH3 |
| Aircraft | B77W/H-SDE1E2E3FGHIJ2J3J4J5M1RWXY/LB1D1 |
Departure
| Time | N/A |
|---|---|
| Airport | East Midlands Airport (EGNX) |
Arrival
| Time | 2026-05-03 23:44 |
|---|---|
| Airport | Miami International Airport (KMIA) |
| Time | Latitude | Longitude | Altitude | Speed | Heading |
|---|---|---|---|---|---|
| 2026-05-03 20:15 | 37.41223 | -62.49936 | 35790 ft | 375 kts | 238° |
| 2026-05-03 20:15 | 37.38420 | -62.55491 | 35806 ft | 375 kts | 238° |
| 2026-05-03 20:16 | 37.35634 | -62.61000 | 35798 ft | 374 kts | 238° |
| 2026-05-03 20:16 | 37.32837 | -62.66524 | 35802 ft | 373 kts | 238° |
| 2026-05-03 20:17 | 37.30071 | -62.71978 | 35804 ft | 371 kts | 238° |
| 2026-05-03 20:17 | 37.27292 | -62.77449 | 35807 ft | 371 kts | 238° |
| 2026-05-03 20:18 | 37.24515 | -62.82906 | 35852 ft | 370 kts | 238° |
| 2026-05-03 20:18 | 37.21760 | -62.88313 | 35784 ft | 369 kts | 238° |
| 2026-05-03 20:19 | 37.18995 | -62.93730 | 35803 ft | 368 kts | 238° |
| 2026-05-03 20:19 | 37.16224 | -62.99148 | 35814 ft | 368 kts | 238° |
| 2026-05-03 20:20 | 37.13495 | -63.04476 | 35820 ft | 368 kts | 238° |
| 2026-05-03 20:20 | 37.10737 | -63.09853 | 35821 ft | 368 kts | 238° |
| 2026-05-03 20:21 | 37.07962 | -63.15255 | 35866 ft | 369 kts | 238° |
| 2026-05-03 20:21 | 37.05195 | -63.20631 | 35818 ft | 368 kts | 238° |
| 2026-05-03 20:22 | 37.02419 | -63.26017 | 35830 ft | 367 kts | 238° |
| 2026-05-03 20:22 | 36.99651 | -63.31378 | 35830 ft | 367 kts | 238° |
| 2026-05-03 20:23 | 36.96894 | -63.36710 | 35840 ft | 367 kts | 238° |
| 2026-05-03 20:23 | 36.94121 | -63.42064 | 35838 ft | 367 kts | 238° |
| 2026-05-03 20:24 | 36.91342 | -63.47422 | 35821 ft | 366 kts | 238° |
| 2026-05-03 20:24 | 36.88575 | -63.52746 | 35837 ft | 366 kts | 238° |
| 2026-05-03 20:25 | 36.85804 | -63.58071 | 35846 ft | 365 kts | 238° |
| 2026-05-03 20:25 | 36.83031 | -63.63392 | 35850 ft | 365 kts | 238° |
| 2026-05-03 20:26 | 36.80251 | -63.68716 | 35855 ft | 365 kts | 238° |
| 2026-05-03 20:26 | 36.77488 | -63.74001 | 35855 ft | 366 kts | 238° |
| 2026-05-03 20:27 | 36.74697 | -63.79329 | 35858 ft | 365 kts | 238° |
| 2026-05-03 20:27 | 36.71932 | -63.84601 | 35861 ft | 365 kts | 238° |
| 2026-05-03 20:28 | 36.69150 | -63.89897 | 35859 ft | 364 kts | 238° |
| 2026-05-03 20:28 | 36.66374 | -63.95174 | 35863 ft | 363 kts | 238° |
| 2026-05-03 20:29 | 36.63661 | -64.00322 | 35867 ft | 363 kts | 238° |
| 2026-05-03 20:29 | 36.60885 | -64.05580 | 35894 ft | 363 kts | 238° |
| 2026-05-03 20:30 | 36.58103 | -64.10844 | 35881 ft | 363 kts | 238° |
| 2026-05-03 20:30 | 36.55332 | -64.16078 | 35882 ft | 363 kts | 238° |
| 2026-05-03 20:31 | 36.52567 | -64.21294 | 35884 ft | 363 kts | 238° |
| 2026-05-03 20:31 | 36.49784 | -64.26534 | 35878 ft | 363 kts | 238° |
| 2026-05-03 20:32 | 36.46996 | -64.31776 | 35885 ft | 363 kts | 238° |
| 2026-05-03 20:32 | 36.44207 | -64.37010 | 35937 ft | 362 kts | 239° |
| 2026-05-03 20:33 | 36.41429 | -64.42217 | 35902 ft | 363 kts | 239° |
| 2026-05-03 20:33 | 36.38627 | -64.47462 | 35895 ft | 363 kts | 239° |
| 2026-05-03 20:34 | 36.35833 | -64.52682 | 35891 ft | 363 kts | 239° |
| 2026-05-03 20:34 | 36.33053 | -64.57870 | 35894 ft | 362 kts | 239° |
| 2026-05-03 20:35 | 36.30262 | -64.63068 | 35840 ft | 361 kts | 239° |
| 2026-05-03 20:35 | 36.27473 | -64.68256 | 35890 ft | 362 kts | 239° |
| 2026-05-03 20:36 | 36.24685 | -64.73434 | 35910 ft | 364 kts | 239° |
| 2026-05-03 20:36 | 36.21866 | -64.78663 | 35908 ft | 366 kts | 239° |
| 2026-05-03 20:37 | 36.19029 | -64.83915 | 35911 ft | 367 kts | 239° |
| 2026-05-03 20:37 | 36.16204 | -64.89138 | 35913 ft | 367 kts | 239° |
| 2026-05-03 20:38 | 36.13356 | -64.94394 | 35925 ft | 367 kts | 239° |
| 2026-05-03 20:38 | 36.10500 | -64.99659 | 35941 ft | 368 kts | 239° |
| 2026-05-03 20:39 | 36.07711 | -65.04791 | 35919 ft | 367 kts | 239° |
| 2026-05-03 20:39 | 36.04867 | -65.10018 | 35916 ft | 365 kts | 239° |
| 2026-05-03 20:40 | 36.02058 | -65.15171 | 35924 ft | 363 kts | 239° |
| 2026-05-03 20:40 | 35.99246 | -65.20323 | 35923 ft | 362 kts | 239° |
| 2026-05-03 20:41 | 35.96446 | -65.25445 | 35935 ft | 361 kts | 239° |
| 2026-05-03 20:41 | 35.93618 | -65.30612 | 35977 ft | 363 kts | 239° |
| 2026-05-03 20:42 | 35.90773 | -65.35802 | 35938 ft | 365 kts | 239° |
| 2026-05-03 20:42 | 35.87921 | -65.40995 | 35931 ft | 365 kts | 239° |
| 2026-05-03 20:43 | 35.85077 | -65.46167 | 35929 ft | 365 kts | 239° |
| 2026-05-03 20:43 | 35.82283 | -65.51240 | 35804 ft | 367 kts | 238° |
| 2026-05-03 20:44 | 35.79484 | -65.56309 | 35939 ft | 359 kts | 239° |
| 2026-05-03 20:44 | 35.76651 | -65.61444 | 35970 ft | 365 kts | 239° |
| 2026-05-03 20:45 | 35.73798 | -65.66600 | 35952 ft | 364 kts | 239° |
| 2026-05-03 20:45 | 35.70964 | -65.71715 | 35941 ft | 362 kts | 239° |
| 2026-05-03 20:46 | 35.68114 | -65.76852 | 35944 ft | 361 kts | 239° |
| 2026-05-03 20:46 | 35.65286 | -65.81942 | 35909 ft | 360 kts | 239° |
| 2026-05-03 20:47 | 35.62472 | -65.86999 | 35945 ft | 360 kts | 239° |
| 2026-05-03 20:47 | 35.59632 | -65.92096 | 35952 ft | 362 kts | 239° |
| 2026-05-03 20:48 | 35.56773 | -65.97220 | 35960 ft | 364 kts | 239° |
| 2026-05-03 20:48 | 35.53959 | -66.02255 | 35956 ft | 363 kts | 239° |
| 2026-05-03 20:49 | 35.51115 | -66.07336 | 35960 ft | 362 kts | 239° |
| 2026-05-03 20:49 | 35.48257 | -66.12434 | 35921 ft | 361 kts | 239° |
| 2026-05-03 20:50 | 35.45412 | -66.17503 | 35952 ft | 361 kts | 239° |
| 2026-05-03 20:50 | 35.42576 | -66.22550 | 35963 ft | 362 kts | 239° |
| 2026-05-03 20:51 | 35.39710 | -66.27642 | 35983 ft | 363 kts | 239° |
| 2026-05-03 20:51 | 35.36842 | -66.32733 | 35972 ft | 362 kts | 239° |
| 2026-05-03 20:52 | 35.33970 | -66.37817 | 35968 ft | 362 kts | 239° |
| 2026-05-03 20:52 | 35.31122 | -66.42850 | 35943 ft | 360 kts | 239° |
| 2026-05-03 20:53 | 35.28260 | -66.47896 | 35970 ft | 360 kts | 239° |
| 2026-05-03 20:53 | 35.25881 | -66.52088 | 35976 ft | 361 kts | 239° |
| 2026-05-03 20:54 | 35.23009 | -66.57145 | 36013 ft | 362 kts | 239° |
| 2026-05-03 20:54 | 35.18705 | -66.64709 | 35988 ft | 362 kts | 239° |
| 2026-05-03 20:55 | 35.15825 | -66.69760 | 35986 ft | 361 kts | 239° |
| 2026-05-03 20:55 | 35.12974 | -66.74755 | 35980 ft | 360 kts | 239° |
| 2026-05-03 20:56 | 35.10101 | -66.79780 | 35991 ft | 360 kts | 239° |
| 2026-05-03 20:56 | 35.07225 | -66.84804 | 35989 ft | 361 kts | 239° |
| 2026-05-03 20:57 | 35.04344 | -66.89829 | 36045 ft | 361 kts | 239° |
| 2026-05-03 20:57 | 35.01467 | -66.94842 | 36004 ft | 361 kts | 239° |
| 2026-05-03 20:58 | 34.98609 | -66.99812 | 35992 ft | 361 kts | 239° |
| 2026-05-03 20:58 | 34.95762 | -67.04757 | 35980 ft | 359 kts | 239° |
| 2026-05-03 20:59 | 34.92881 | -67.09754 | 35994 ft | 360 kts | 239° |
| 2026-05-03 20:59 | 34.90008 | -67.14730 | 36003 ft | 360 kts | 239° |
| 2026-05-03 21:00 | 34.87604 | -67.18890 | 36009 ft | 361 kts | 239° |
| 2026-05-03 21:00 | 34.84235 | -67.24709 | 36017 ft | 362 kts | 239° |
| 2026-05-03 21:01 | 34.81324 | -67.29730 | 36015 ft | 362 kts | 239° |
| 2026-05-03 21:01 | 34.78422 | -67.34727 | 35986 ft | 360 kts | 239° |
| 2026-05-03 21:02 | 34.75540 | -67.39683 | 36016 ft | 360 kts | 239° |
| 2026-05-03 21:02 | 34.72642 | -67.44661 | 36018 ft | 361 kts | 239° |
| 2026-05-03 21:03 | 34.69729 | -67.49658 | 36018 ft | 361 kts | 239° |
| 2026-05-03 21:03 | 34.66835 | -67.54614 | 36065 ft | 362 kts | 239° |
| 2026-05-03 21:04 | 34.63917 | -67.59605 | 36032 ft | 362 kts | 239° |
| 2026-05-03 21:04 | 34.60996 | -67.64594 | 36007 ft | 361 kts | 239° |
| 2026-05-03 21:05 | 34.58100 | -67.69531 | 36038 ft | 361 kts | 239° |
| 2026-05-03 21:05 | 34.55181 | -67.74504 | 36022 ft | 361 kts | 239° |
| 2026-05-03 21:06 | 34.52258 | -67.79475 | 36020 ft | 361 kts | 239° |
| 2026-05-03 21:06 | 34.49359 | -67.84399 | 36029 ft | 361 kts | 239° |
| 2026-05-03 21:07 | 34.46433 | -67.89362 | 36027 ft | 361 kts | 239° |
| 2026-05-03 21:07 | 34.43501 | -67.94328 | 35981 ft | 361 kts | 239° |
| 2026-05-03 21:08 | 34.40592 | -67.99248 | 36027 ft | 361 kts | 238° |
| 2026-05-03 21:08 | 34.37721 | -68.04098 | 36039 ft | 361 kts | 238° |
| 2026-05-03 21:09 | 34.34802 | -68.09022 | 36039 ft | 362 kts | 238° |
| 2026-05-03 21:09 | 34.31854 | -68.13989 | 36043 ft | 363 kts | 238° |
| 2026-05-03 21:10 | 34.28914 | -68.18934 | 36052 ft | 363 kts | 238° |
| 2026-05-03 21:10 | 34.25958 | -68.23900 | 36053 ft | 363 kts | 238° |
| 2026-05-03 21:11 | 34.23003 | -68.28856 | 36032 ft | 362 kts | 238° |
| 2026-05-03 21:11 | 34.20049 | -68.33803 | 36046 ft | 362 kts | 238° |
| 2026-05-03 21:12 | 34.17124 | -68.38697 | 36045 ft | 361 kts | 238° |
| 2026-05-03 21:12 | 34.14176 | -68.43621 | 36045 ft | 361 kts | 238° |
| 2026-05-03 21:13 | 34.11249 | -68.48505 | 36052 ft | 361 kts | 238° |
| 2026-05-03 21:13 | 34.08300 | -68.53420 | 36077 ft | 361 kts | 238° |
| 2026-05-03 21:14 | 34.05347 | -68.58333 | 36058 ft | 361 kts | 238° |
| 2026-05-03 21:14 | 34.02411 | -68.63212 | 36050 ft | 361 kts | 238° |
| 2026-05-03 21:15 | 33.99451 | -68.68124 | 36054 ft | 361 kts | 238° |
| 2026-05-03 21:15 | 33.96507 | -68.73001 | 36054 ft | 361 kts | 238° |
| 2026-05-03 21:16 | 33.93550 | -68.77896 | 36059 ft | 361 kts | 238° |
| 2026-05-03 21:16 | 33.90592 | -68.82783 | 36057 ft | 360 kts | 238° |
| 2026-05-03 21:17 | 33.88150 | -68.86816 | 36057 ft | 361 kts | 238° |
| 2026-05-03 21:17 | 33.84687 | -68.92523 | 36066 ft | 360 kts | 238° |
| 2026-05-03 21:18 | 33.81743 | -68.97369 | 36063 ft | 361 kts | 238° |
| 2026-05-03 21:18 | 33.78827 | -69.02163 | 36066 ft | 361 kts | 238° |
| 2026-05-03 21:19 | 33.75854 | -69.07045 | 36066 ft | 361 kts | 238° |
| 2026-05-03 21:19 | 33.72900 | -69.11888 | 36067 ft | 361 kts | 238° |
| 2026-05-03 21:20 | 33.69918 | -69.16771 | 36071 ft | 361 kts | 238° |
| 2026-05-03 21:20 | 33.66939 | -69.21641 | 36064 ft | 361 kts | 238° |
| 2026-05-03 21:21 | 33.63983 | -69.26468 | 36074 ft | 361 kts | 238° |
| 2026-05-03 21:21 | 33.61002 | -69.31329 | 36071 ft | 361 kts | 238° |
| 2026-05-03 21:22 | 33.58023 | -69.36181 | 36074 ft | 361 kts | 238° |
| 2026-05-03 21:22 | 33.55040 | -69.41034 | 36078 ft | 361 kts | 238° |
| 2026-05-03 21:23 | 33.52070 | -69.45858 | 36076 ft | 361 kts | 238° |
| 2026-05-03 21:23 | 33.49080 | -69.50710 | 36055 ft | 361 kts | 238° |
| 2026-05-03 21:24 | 33.46089 | -69.55555 | 36092 ft | 361 kts | 238° |
| 2026-05-03 21:24 | 33.43113 | -69.60371 | 36070 ft | 361 kts | 238° |
| 2026-05-03 21:25 | 33.40113 | -69.65219 | 36075 ft | 361 kts | 238° |
| 2026-05-03 21:25 | 33.37118 | -69.70053 | 36074 ft | 361 kts | 238° |
| 2026-05-03 21:26 | 33.34133 | -69.74867 | 36074 ft | 361 kts | 238° |
| 2026-05-03 21:26 | 33.31127 | -69.79704 | 36076 ft | 361 kts | 238° |
| 2026-05-03 21:27 | 33.28145 | -69.84496 | 36075 ft | 360 kts | 237° |
| 2026-05-03 21:27 | 33.25142 | -69.89311 | 36093 ft | 362 kts | 238° |
| 2026-05-03 21:28 | 33.22147 | -69.94111 | 36096 ft | 362 kts | 238° |
| 2026-05-03 21:28 | 33.19130 | -69.98941 | 36094 ft | 362 kts | 238° |
| 2026-05-03 21:29 | 33.16162 | -70.03687 | 36092 ft | 363 kts | 238° |
| 2026-05-03 21:29 | 33.13137 | -70.08516 | 36092 ft | 363 kts | 238° |
| 2026-05-03 21:30 | 33.10129 | -70.13314 | 36034 ft | 362 kts | 237° |
| 2026-05-03 21:30 | 33.07102 | -70.18136 | 36081 ft | 361 kts | 237° |
| 2026-05-03 21:31 | 33.04104 | -70.22904 | 36103 ft | 362 kts | 237° |
| 2026-05-03 21:31 | 33.01073 | -70.27720 | 36095 ft | 363 kts | 237° |
| 2026-05-03 21:32 | 32.98065 | -70.32493 | 36097 ft | 363 kts | 237° |
| 2026-05-03 21:32 | 32.95025 | -70.37309 | 36094 ft | 363 kts | 237° |
| 2026-05-03 21:33 | 32.91977 | -70.42132 | 36096 ft | 363 kts | 237° |
| 2026-05-03 21:33 | 32.88936 | -70.46939 | 36089 ft | 363 kts | 237° |
| 2026-05-03 21:34 | 32.85909 | -70.51717 | 36096 ft | 363 kts | 237° |
| 2026-05-03 21:34 | 32.82865 | -70.56516 | 36108 ft | 364 kts | 237° |
| 2026-05-03 21:35 | 32.79826 | -70.61301 | 36102 ft | 364 kts | 237° |
| 2026-05-03 21:35 | 32.76768 | -70.66109 | 36101 ft | 364 kts | 237° |
| 2026-05-03 21:36 | 32.73708 | -70.70914 | 36103 ft | 364 kts | 237° |
| 2026-05-03 21:36 | 32.70666 | -70.75686 | 36104 ft | 364 kts | 237° |
| 2026-05-03 21:37 | 32.67604 | -70.80480 | 36091 ft | 363 kts | 236° |
| 2026-05-03 21:37 | 32.64549 | -70.85261 | 36101 ft | 363 kts | 236° |
| 2026-05-03 21:38 | 32.61488 | -70.90043 | 36126 ft | 365 kts | 237° |
| 2026-05-03 21:38 | 32.58426 | -70.94822 | 36111 ft | 365 kts | 237° |
| 2026-05-03 21:39 | 32.55340 | -70.99631 | 36106 ft | 366 kts | 237° |
| 2026-05-03 21:39 | 32.52293 | -71.04373 | 36112 ft | 366 kts | 237° |
| 2026-05-03 21:40 | 32.49225 | -71.09142 | 36065 ft | 366 kts | 236° |
| 2026-05-03 21:40 | 32.46135 | -71.13939 | 36104 ft | 365 kts | 236° |
| 2026-05-03 21:41 | 32.43570 | -71.17916 | 36125 ft | 365 kts | 236° |
| 2026-05-03 21:41 | 32.39959 | -71.23509 | 36110 ft | 366 kts | 236° |
| 2026-05-03 21:42 | 32.37386 | -71.27489 | 36114 ft | 366 kts | 236° |
| 2026-05-03 21:42 | 32.34294 | -71.32266 | 36114 ft | 367 kts | 236° |
| 2026-05-03 21:43 | 32.31182 | -71.37068 | 36109 ft | 367 kts | 236° |
| 2026-05-03 21:43 | 32.28091 | -71.41832 | 36051 ft | 367 kts | 236° |
| 2026-05-03 21:44 | 32.24981 | -71.46618 | 36103 ft | 367 kts | 236° |
| 2026-05-03 21:44 | 32.21859 | -71.51418 | 36116 ft | 368 kts | 236° |
| 2026-05-03 21:45 | 32.18750 | -71.56192 | 36137 ft | 369 kts | 236° |
| 2026-05-03 21:45 | 32.15616 | -71.60998 | 36123 ft | 370 kts | 236° |
| 2026-05-03 21:46 | 32.12466 | -71.65822 | 36114 ft | 370 kts | 236° |
| 2026-05-03 21:46 | 32.09317 | -71.70639 | 36114 ft | 370 kts | 236° |
| 2026-05-03 21:47 | 32.06188 | -71.75421 | 36114 ft | 370 kts | 235° |
| 2026-05-03 21:47 | 32.03037 | -71.80226 | 36114 ft | 369 kts | 235° |
| 2026-05-03 21:48 | 31.99911 | -71.84984 | 36114 ft | 369 kts | 235° |
| 2026-05-03 21:48 | 31.96766 | -71.89768 | 36114 ft | 369 kts | 235° |
| 2026-05-03 21:49 | 31.93618 | -71.94553 | 36125 ft | 369 kts | 236° |
| 2026-05-03 21:49 | 31.90482 | -71.99312 | 36110 ft | 369 kts | 236° |
| 2026-05-03 21:50 | 31.87382 | -72.04012 | 36108 ft | 368 kts | 236° |
| 2026-05-03 21:50 | 31.84257 | -72.08747 | 36111 ft | 368 kts | 235° |
| 2026-05-03 21:51 | 31.81102 | -72.13519 | 36120 ft | 369 kts | 235° |
| 2026-05-03 21:51 | 31.77941 | -72.18294 | 36120 ft | 370 kts | 235° |
| 2026-05-03 21:52 | 31.74793 | -72.23043 | 36122 ft | 371 kts | 235° |
| 2026-05-03 21:52 | 31.71607 | -72.27844 | 36128 ft | 372 kts | 235° |
| 2026-05-03 21:53 | 31.68418 | -72.32643 | 36121 ft | 373 kts | 235° |
| 2026-05-03 21:53 | 31.65223 | -72.37445 | 36116 ft | 372 kts | 235° |
| 2026-05-03 21:54 | 31.62049 | -72.42209 | 36114 ft | 372 kts | 235° |
| 2026-05-03 21:54 | 31.58858 | -72.46993 | 36123 ft | 372 kts | 235° |
| 2026-05-03 21:55 | 31.55680 | -72.51754 | 36120 ft | 373 kts | 235° |
| 2026-05-03 21:55 | 31.52474 | -72.56548 | 36120 ft | 373 kts | 235° |
| 2026-05-03 21:56 | 31.49265 | -72.61342 | 36146 ft | 373 kts | 235° |
| 2026-05-03 21:56 | 31.46051 | -72.66138 | 36124 ft | 373 kts | 235° |
| 2026-05-03 21:57 | 31.42852 | -72.70905 | 36121 ft | 373 kts | 235° |
| 2026-05-03 21:57 | 31.39639 | -72.75685 | 36111 ft | 373 kts | 234° |
| 2026-05-03 21:58 | 31.36443 | -72.80436 | 36124 ft | 373 kts | 234° |
| 2026-05-03 21:58 | 31.33221 | -72.85220 | 36121 ft | 374 kts | 234° |
| 2026-05-03 21:59 | 31.30003 | -72.89991 | 36121 ft | 375 kts | 234° |
| 2026-05-03 21:59 | 31.26765 | -72.94787 | 36120 ft | 375 kts | 234° |
| 2026-05-03 22:00 | 31.23521 | -72.99584 | 36128 ft | 375 kts | 234° |
| 2026-05-03 22:00 | 31.20355 | -73.04263 | 36080 ft | 375 kts | 234° |
| 2026-05-03 22:01 | 31.17115 | -73.09042 | 36118 ft | 375 kts | 234° |
| 2026-05-03 22:01 | 31.13870 | -73.13825 | 36118 ft | 376 kts | 234° |
| 2026-05-03 22:02 | 31.10612 | -73.18621 | 36123 ft | 376 kts | 234° |
| 2026-05-03 22:02 | 31.07372 | -73.23384 | 36126 ft | 377 kts | 234° |
| 2026-05-03 22:03 | 31.04101 | -73.28186 | 36120 ft | 377 kts | 234° |
| 2026-05-03 22:03 | 31.00849 | -73.32954 | 36120 ft | 377 kts | 234° |
| 2026-05-03 22:04 | 30.97581 | -73.37742 | 36073 ft | 377 kts | 234° |
| 2026-05-03 22:04 | 30.94313 | -73.42523 | 36111 ft | 377 kts | 234° |
| 2026-05-03 22:05 | 30.91058 | -73.47280 | 36118 ft | 377 kts | 234° |
| 2026-05-03 22:05 | 30.87776 | -73.52069 | 36122 ft | 378 kts | 234° |
| 2026-05-03 22:06 | 30.84500 | -73.56845 | 36120 ft | 379 kts | 234° |
| 2026-05-03 22:06 | 30.81205 | -73.61641 | 36121 ft | 379 kts | 234° |
| 2026-05-03 22:07 | 30.77903 | -73.66442 | 36135 ft | 379 kts | 234° |
| 2026-05-03 22:07 | 30.74618 | -73.71213 | 36089 ft | 379 kts | 234° |
| 2026-05-03 22:08 | 30.71315 | -73.76004 | 36113 ft | 379 kts | 234° |
| 2026-05-03 22:08 | 30.68031 | -73.80763 | 36117 ft | 379 kts | 234° |
| 2026-05-03 22:09 | 30.64725 | -73.85547 | 36118 ft | 379 kts | 234° |
| 2026-05-03 22:10 | 30.59757 | -73.92729 | 36118 ft | 380 kts | 234° |
| 2026-05-03 22:10 | 30.56457 | -73.97487 | 36117 ft | 380 kts | 234° |
| 2026-05-03 22:11 | 30.53188 | -74.02187 | 36133 ft | 380 kts | 234° |
| 2026-05-03 22:11 | 30.49873 | -74.06950 | 36237 ft | 383 kts | 233° |
| 2026-05-03 22:11 | 30.48202 | -74.09349 | 36577 ft | 381 kts | 233° |
| 2026-05-03 22:12 | 30.46539 | -74.11735 | 36965 ft | 378 kts | 233° |
| 2026-05-03 22:12 | 30.44892 | -74.14096 | 37351 ft | 375 kts | 233° |
| 2026-05-03 22:12 | 30.43255 | -74.16442 | 37711 ft | 374 kts | 233° |
| 2026-05-03 22:12 | 30.41619 | -74.18786 | 37998 ft | 373 kts | 233° |
| 2026-05-03 22:13 | 30.39996 | -74.21112 | 38035 ft | 376 kts | 233° |
| 2026-05-03 22:13 | 30.36698 | -74.25831 | 38103 ft | 375 kts | 233° |
| 2026-05-03 22:14 | 30.33422 | -74.30511 | 38112 ft | 372 kts | 233° |
| 2026-05-03 22:14 | 30.30185 | -74.35133 | 38114 ft | 370 kts | 233° |
| 2026-05-03 22:15 | 30.26944 | -74.39754 | 38114 ft | 370 kts | 233° |
| 2026-05-03 22:15 | 30.23684 | -74.44398 | 38115 ft | 372 kts | 233° |
| 2026-05-03 22:16 | 30.20421 | -74.49039 | 38119 ft | 375 kts | 233° |
| 2026-05-03 22:16 | 30.17110 | -74.53743 | 38117 ft | 377 kts | 233° |
| 2026-05-03 22:17 | 30.13808 | -74.58429 | 38110 ft | 379 kts | 233° |
| 2026-05-03 22:17 | 30.10470 | -74.63160 | 38109 ft | 379 kts | 233° |
| 2026-05-03 22:18 | 30.07130 | -74.67888 | 38111 ft | 379 kts | 233° |
| 2026-05-03 22:18 | 30.03798 | -74.72599 | 38095 ft | 378 kts | 233° |
| 2026-05-03 22:19 | 30.00483 | -74.77282 | 38107 ft | 378 kts | 233° |
| 2026-05-03 22:19 | 29.97149 | -74.81985 | 38108 ft | 378 kts | 233° |
| 2026-05-03 22:20 | 29.93829 | -74.86664 | 38111 ft | 378 kts | 233° |
| 2026-05-03 22:20 | 29.90488 | -74.91366 | 38112 ft | 378 kts | 233° |
| 2026-05-03 22:21 | 29.87152 | -74.96056 | 38109 ft | 378 kts | 233° |
| 2026-05-03 22:21 | 29.83870 | -75.00665 | 38108 ft | 378 kts | 233° |
| 2026-05-03 22:22 | 29.80546 | -75.05327 | 38106 ft | 378 kts | 233° |
| 2026-05-03 22:22 | 29.77197 | -75.10019 | 38107 ft | 378 kts | 233° |
| 2026-05-03 22:23 | 29.73849 | -75.14703 | 38110 ft | 379 kts | 233° |
| 2026-05-03 22:23 | 29.70520 | -75.19357 | 38109 ft | 379 kts | 233° |
| 2026-05-03 22:24 | 29.67161 | -75.24046 | 38106 ft | 379 kts | 233° |
| 2026-05-03 22:24 | 29.63803 | -75.28728 | 38106 ft | 379 kts | 233° |
| 2026-05-03 22:25 | 29.60458 | -75.33387 | 38107 ft | 379 kts | 233° |
| 2026-05-03 22:25 | 29.57095 | -75.38066 | 38067 ft | 379 kts | 233° |
| 2026-05-03 22:26 | 29.53731 | -75.42742 | 38109 ft | 380 kts | 233° |
| 2026-05-03 22:26 | 29.50342 | -75.47447 | 38108 ft | 382 kts | 232° |
| 2026-05-03 22:27 | 29.46963 | -75.52131 | 38099 ft | 384 kts | 232° |
| 2026-05-03 22:27 | 29.43550 | -75.56857 | 38101 ft | 384 kts | 232° |
| 2026-05-03 22:28 | 29.40149 | -75.61562 | 38100 ft | 385 kts | 232° |
| 2026-05-03 22:28 | 29.36728 | -75.66288 | 38094 ft | 385 kts | 232° |
| 2026-05-03 22:29 | 29.33300 | -75.71019 | 38057 ft | 384 kts | 233° |
| 2026-05-03 22:29 | 29.29904 | -75.75700 | 38083 ft | 384 kts | 233° |
| 2026-05-03 22:30 | 29.26482 | -75.80412 | 38109 ft | 385 kts | 232° |
| 2026-05-03 22:30 | 29.23636 | -75.84327 | 38100 ft | 385 kts | 232° |
| 2026-05-03 22:31 | 29.20200 | -75.89048 | 38098 ft | 385 kts | 232° |
| 2026-05-03 22:31 | 29.16768 | -75.93758 | 38088 ft | 385 kts | 232° |
| 2026-05-03 22:32 | 29.13337 | -75.98461 | 38094 ft | 384 kts | 232° |
| 2026-05-03 22:32 | 29.09992 | -76.03041 | 38090 ft | 384 kts | 232° |
| 2026-05-03 22:33 | 29.06560 | -76.07735 | 38083 ft | 384 kts | 233° |
| 2026-05-03 22:33 | 29.03126 | -76.12428 | 38088 ft | 385 kts | 232° |
| 2026-05-03 22:34 | 28.99698 | -76.17106 | 38089 ft | 387 kts | 232° |
| 2026-05-03 22:34 | 28.96228 | -76.21836 | 38086 ft | 387 kts | 232° |
| 2026-05-03 22:35 | 28.92764 | -76.26553 | 38088 ft | 387 kts | 232° |
| 2026-05-03 22:35 | 28.89327 | -76.31227 | 38083 ft | 386 kts | 232° |
| 2026-05-03 22:36 | 28.85871 | -76.35921 | 38081 ft | 385 kts | 232° |
| 2026-05-03 22:36 | 28.82420 | -76.40605 | 38062 ft | 384 kts | 232° |
| 2026-05-03 22:37 | 28.78986 | -76.45262 | 38077 ft | 386 kts | 232° |
| 2026-05-03 22:37 | 28.75519 | -76.49958 | 38082 ft | 388 kts | 232° |
| 2026-05-03 22:38 | 28.72206 | -76.54801 | 38083 ft | 385 kts | 242° |
| 2026-05-03 22:38 | 28.70438 | -76.60507 | 38078 ft | 388 kts | 257° |
| 2026-05-03 22:39 | 28.69612 | -76.66608 | 38081 ft | 390 kts | 257° |
| 2026-05-03 22:39 | 28.68795 | -76.72736 | 38082 ft | 392 kts | 257° |
| 2026-05-03 22:40 | 28.67954 | -76.78837 | 38077 ft | 392 kts | 257° |
| 2026-05-03 22:40 | 28.67093 | -76.84962 | 38076 ft | 391 kts | 257° |
| 2026-05-03 22:41 | 28.66225 | -76.91076 | 38080 ft | 390 kts | 257° |
| 2026-05-03 22:41 | 28.65357 | -76.97170 | 38086 ft | 388 kts | 257° |
| 2026-05-03 22:42 | 28.64501 | -77.03156 | 38067 ft | 387 kts | 257° |
| 2026-05-03 22:42 | 28.63640 | -77.09159 | 38071 ft | 385 kts | 257° |
| 2026-05-03 22:43 | 28.62776 | -77.15165 | 38054 ft | 383 kts | 257° |
| 2026-05-03 22:43 | 28.61913 | -77.21134 | 38074 ft | 385 kts | 257° |
| 2026-05-03 22:44 | 28.61038 | -77.27177 | 38080 ft | 387 kts | 257° |
| 2026-05-03 22:44 | 28.60157 | -77.33237 | 38072 ft | 389 kts | 257° |
| 2026-05-03 22:45 | 28.59272 | -77.39317 | 38071 ft | 389 kts | 257° |
| 2026-05-03 22:45 | 28.58389 | -77.45357 | 38074 ft | 388 kts | 257° |
| 2026-05-03 22:46 | 28.57501 | -77.51410 | 38076 ft | 387 kts | 257° |
| 2026-05-03 22:46 | 28.56612 | -77.57458 | 38071 ft | 387 kts | 257° |
| 2026-05-03 22:47 | 28.55723 | -77.63485 | 38071 ft | 385 kts | 257° |
| 2026-05-03 22:47 | 28.54832 | -77.69497 | 38066 ft | 383 kts | 257° |
| 2026-05-03 22:48 | 28.53951 | -77.75426 | 38068 ft | 382 kts | 257° |
| 2026-05-03 22:48 | 28.53065 | -77.81378 | 38072 ft | 380 kts | 257° |
| 2026-05-03 22:49 | 28.52178 | -77.87312 | 38070 ft | 380 kts | 257° |
| 2026-05-03 22:49 | 28.51294 | -77.93210 | 38068 ft | 380 kts | 257° |
| 2026-05-03 22:50 | 28.50400 | -77.99160 | 38078 ft | 380 kts | 257° |
| 2026-05-03 22:50 | 28.49522 | -78.04987 | 38068 ft | 381 kts | 257° |
| 2026-05-03 22:51 | 28.48623 | -78.10935 | 38070 ft | 381 kts | 257° |
| 2026-05-03 22:51 | 28.47721 | -78.16885 | 38070 ft | 381 kts | 257° |
| 2026-05-03 22:52 | 28.46823 | -78.22788 | 38064 ft | 381 kts | 257° |
| 2026-05-03 22:52 | 28.45918 | -78.28724 | 38067 ft | 381 kts | 257° |
| 2026-05-03 22:53 | 28.45009 | -78.34664 | 38037 ft | 381 kts | 257° |
| 2026-05-03 22:53 | 28.44097 | -78.40607 | 38058 ft | 382 kts | 257° |
| 2026-05-03 22:54 | 28.43179 | -78.46572 | 38073 ft | 383 kts | 257° |
| 2026-05-03 22:54 | 28.42255 | -78.52558 | 38066 ft | 385 kts | 257° |
| 2026-05-03 22:55 | 28.41333 | -78.58511 | 38066 ft | 385 kts | 257° |
| 2026-05-03 22:55 | 28.40401 | -78.64517 | 38066 ft | 385 kts | 257° |
| 2026-05-03 22:56 | 28.39464 | -78.70530 | 38084 ft | 385 kts | 256° |
| 2026-05-03 22:56 | 28.38535 | -78.76478 | 38066 ft | 384 kts | 256° |
| 2026-05-03 22:57 | 28.37602 | -78.82441 | 38067 ft | 382 kts | 256° |
| 2026-05-03 22:57 | 28.36675 | -78.88340 | 38067 ft | 380 kts | 256° |
| 2026-05-03 22:58 | 28.35739 | -78.94279 | 38068 ft | 379 kts | 256° |
| 2026-05-03 22:58 | 28.33827 | -78.99709 | 38075 ft | 374 kts | 234° |
| 2026-05-03 22:59 | 28.30309 | -79.03991 | 38069 ft | 380 kts | 226° |
| 2026-05-03 22:59 | 28.28180 | -79.05819 | 38074 ft | 391 kts | 214° |
| 2026-05-03 22:59 | 28.25610 | -79.06975 | 38081 ft | 400 kts | 208° |
| 2026-05-03 23:00 | 28.20290 | -79.08873 | 38026 ft | 404 kts | 206° |
| 2026-05-03 23:00 | 28.14902 | -79.10770 | 38056 ft | 406 kts | 206° |
| 2026-05-03 23:01 | 28.09497 | -79.12739 | 38065 ft | 408 kts | 207° |
| 2026-05-03 23:01 | 28.04108 | -79.14734 | 38060 ft | 410 kts | 207° |
| 2026-05-03 23:02 | 27.98670 | -79.16755 | 38059 ft | 411 kts | 207° |
| 2026-05-03 23:02 | 27.93213 | -79.18781 | 38007 ft | 411 kts | 206° |
| 2026-05-03 23:03 | 27.87825 | -79.20778 | 38043 ft | 411 kts | 206° |
| 2026-05-03 23:03 | 27.82375 | -79.22797 | 38050 ft | 411 kts | 206° |
| 2026-05-03 23:04 | 27.76967 | -79.24799 | 38045 ft | 411 kts | 206° |
| 2026-05-03 23:04 | 27.71513 | -79.26815 | 38045 ft | 411 kts | 206° |
| 2026-05-03 23:05 | 27.66078 | -79.28822 | 38044 ft | 411 kts | 206° |
| 2026-05-03 23:05 | 27.60659 | -79.30821 | 38042 ft | 411 kts | 206° |
| 2026-05-03 23:06 | 27.55201 | -79.32832 | 38043 ft | 412 kts | 206° |
| 2026-05-03 23:06 | 27.49732 | -79.34846 | 38041 ft | 413 kts | 206° |
| 2026-05-03 23:07 | 27.44291 | -79.36847 | 38049 ft | 413 kts | 206° |
| 2026-05-03 23:07 | 27.38809 | -79.38861 | 38037 ft | 413 kts | 206° |
| 2026-05-03 23:08 | 27.33337 | -79.40870 | 38041 ft | 414 kts | 206° |
| 2026-05-03 23:08 | 27.30638 | -79.41858 | 37909 ft | 410 kts | 206° |
| 2026-05-03 23:08 | 27.27943 | -79.42841 | 37533 ft | 403 kts | 206° |
| 2026-05-03 23:08 | 27.25272 | -79.43815 | 36718 ft | 405 kts | 206° |
| 2026-05-03 23:09 | 27.22569 | -79.44811 | 35658 ft | 413 kts | 206° |
| 2026-05-03 23:09 | 27.19803 | -79.45832 | 34561 ft | 422 kts | 206° |
| 2026-05-03 23:09 | 27.16985 | -79.46866 | 33490 ft | 428 kts | 205° |
| 2026-05-03 23:09 | 27.14176 | -79.47889 | 32738 ft | 427 kts | 205° |
| 2026-05-03 23:10 | 27.11350 | -79.48916 | 31833 ft | 428 kts | 205° |
| 2026-05-03 23:10 | 27.08487 | -79.49962 | 30695 ft | 436 kts | 204° |
| 2026-05-03 23:10 | 27.05575 | -79.51027 | 29547 ft | 442 kts | 204° |
| 2026-05-03 23:10 | 27.02641 | -79.52095 | 28601 ft | 443 kts | 204° |
| 2026-05-03 23:11 | 26.99735 | -79.53151 | 27894 ft | 439 kts | 204° |
| 2026-05-03 23:11 | 26.96846 | -79.54200 | 27307 ft | 433 kts | 204° |
| 2026-05-03 23:11 | 26.93999 | -79.55236 | 26710 ft | 427 kts | 204° |
| 2026-05-03 23:11 | 26.91216 | -79.56248 | 26086 ft | 424 kts | 204° |
| 2026-05-03 23:12 | 26.88410 | -79.57269 | 25437 ft | 421 kts | 204° |
| 2026-05-03 23:12 | 26.85619 | -79.58279 | 24807 ft | 419 kts | 203° |
| 2026-05-03 23:12 | 26.82852 | -79.59276 | 24330 ft | 417 kts | 203° |
| 2026-05-03 23:12 | 26.80090 | -79.60271 | 24170 ft | 417 kts | 203° |
| 2026-05-03 23:13 | 26.77356 | -79.61257 | 24036 ft | 419 kts | 203° |
| 2026-05-03 23:13 | 26.74580 | -79.62258 | 24040 ft | 419 kts | 203° |
| 2026-05-03 23:13 | 26.71795 | -79.63261 | 24032 ft | 418 kts | 203° |
| 2026-05-03 23:13 | 26.69081 | -79.64232 | 23751 ft | 395 kts | 204° |
| 2026-05-03 23:14 | 26.66546 | -79.65136 | 23231 ft | 370 kts | 204° |
| 2026-05-03 23:14 | 26.64172 | -79.65988 | 22337 ft | 356 kts | 204° |
| 2026-05-03 23:14 | 26.61822 | -79.66835 | 21174 ft | 352 kts | 203° |
| 2026-05-03 23:14 | 26.59489 | -79.67662 | 20006 ft | 351 kts | 203° |
| 2026-05-03 23:15 | 26.57170 | -79.68473 | 18930 ft | 347 kts | 202° |
| 2026-05-03 23:15 | 26.55645 | -79.69006 | 18245 ft | 345 kts | 202° |
| 2026-05-03 23:15 | 26.53379 | -79.69797 | 17588 ft | 334 kts | 202° |
| 2026-05-03 23:15 | 26.50442 | -79.70824 | 16969 ft | 333 kts | 202° |
| 2026-05-03 23:16 | 26.48235 | -79.71597 | 16481 ft | 332 kts | 201° |
| 2026-05-03 23:16 | 26.46768 | -79.72157 | 16179 ft | 325 kts | 208° |
| 2026-05-03 23:16 | 26.44932 | -79.73471 | 15932 ft | 312 kts | 225° |
| 2026-05-03 23:16 | 26.43422 | -79.75231 | 15747 ft | 318 kts | 230° |
| 2026-05-03 23:17 | 26.41929 | -79.77102 | 15550 ft | 326 kts | 230° |
| 2026-05-03 23:17 | 26.40408 | -79.78985 | 15336 ft | 327 kts | 229° |
| 2026-05-03 23:17 | 26.38872 | -79.80863 | 15104 ft | 326 kts | 230° |
| 2026-05-03 23:17 | 26.37450 | -79.82793 | 14914 ft | 324 kts | 236° |
| 2026-05-03 23:18 | 26.36188 | -79.84862 | 14713 ft | 320 kts | 238° |
| 2026-05-03 23:18 | 26.34963 | -79.86905 | 14504 ft | 312 kts | 237° |
| 2026-05-03 23:18 | 26.33755 | -79.88874 | 14308 ft | 304 kts | 237° |
| 2026-05-03 23:18 | 26.32560 | -79.90796 | 14116 ft | 296 kts | 237° |
| 2026-05-03 23:19 | 26.31399 | -79.92656 | 13949 ft | 289 kts | 236° |
| 2026-05-03 23:19 | 26.30258 | -79.94480 | 13732 ft | 284 kts | 236° |
| 2026-05-03 23:19 | 26.29130 | -79.96281 | 13557 ft | 282 kts | 236° |
| 2026-05-03 23:19 | 26.28010 | -79.98068 | 13373 ft | 281 kts | 236° |
| 2026-05-03 23:20 | 26.26904 | -79.99832 | 13206 ft | 280 kts | 237° |
| 2026-05-03 23:20 | 26.25699 | -80.01414 | 13011 ft | 278 kts | 221° |
| 2026-05-03 23:20 | 26.24003 | -80.02493 | 12884 ft | 287 kts | 203° |
| 2026-05-03 23:20 | 26.22033 | -80.03051 | 12704 ft | 294 kts | 196° |
| 2026-05-03 23:21 | 26.20009 | -80.03491 | 12497 ft | 296 kts | 195° |
| 2026-05-03 23:21 | 26.17982 | -80.03921 | 12323 ft | 296 kts | 195° |
| 2026-05-03 23:21 | 26.15984 | -80.04353 | 12147 ft | 296 kts | 195° |
| 2026-05-03 23:21 | 26.13962 | -80.04801 | 11930 ft | 296 kts | 195° |
| 2026-05-03 23:22 | 26.09939 | -80.05712 | 11572 ft | 293 kts | 195° |
| 2026-05-03 23:22 | 26.07960 | -80.06162 | 11473 ft | 285 kts | 195° |
| 2026-05-03 23:22 | 26.06079 | -80.06602 | 11237 ft | 268 kts | 197° |
| 2026-05-03 23:23 | 26.04305 | -80.07059 | 10948 ft | 256 kts | 198° |
| 2026-05-03 23:23 | 26.02600 | -80.07509 | 10700 ft | 253 kts | 198° |
| 2026-05-03 23:23 | 26.00901 | -80.07958 | 10457 ft | 250 kts | 198° |
| 2026-05-03 23:23 | 25.99254 | -80.08388 | 10416 ft | 235 kts | 198° |
| 2026-05-03 23:24 | 25.97690 | -80.08795 | 10382 ft | 230 kts | 198° |
| 2026-05-03 23:24 | 25.96122 | -80.09205 | 10323 ft | 234 kts | 198° |
| 2026-05-03 23:24 | 25.94538 | -80.09617 | 10175 ft | 232 kts | 198° |
| 2026-05-03 23:24 | 25.92981 | -80.10021 | 10023 ft | 227 kts | 198° |
| 2026-05-03 23:25 | 25.91505 | -80.10551 | 9866 ft | 219 kts | 209° |
| 2026-05-03 23:25 | 25.90170 | -80.11310 | 9761 ft | 219 kts | 212° |
| 2026-05-03 23:25 | 25.88816 | -80.12122 | 9607 ft | 222 kts | 212° |
| 2026-05-03 23:25 | 25.87452 | -80.12936 | 9493 ft | 224 kts | 212° |
| 2026-05-03 23:26 | 25.86070 | -80.13755 | 9329 ft | 226 kts | 211° |
| 2026-05-03 23:26 | 25.84676 | -80.14574 | 9192 ft | 224 kts | 211° |
| 2026-05-03 23:26 | 25.83323 | -80.15364 | 9054 ft | 220 kts | 211° |
| 2026-05-03 23:26 | 25.81977 | -80.16147 | 8911 ft | 216 kts | 211° |
| 2026-05-03 23:27 | 25.80643 | -80.16921 | 8800 ft | 217 kts | 211° |
| 2026-05-03 23:27 | 25.79298 | -80.17700 | 8658 ft | 218 kts | 211° |
| 2026-05-03 23:27 | 25.77945 | -80.18483 | 8528 ft | 219 kts | 211° |
| 2026-05-03 23:27 | 25.76588 | -80.19266 | 8391 ft | 220 kts | 211° |
| 2026-05-03 23:28 | 25.75227 | -80.20051 | 8250 ft | 221 kts | 211° |
| 2026-05-03 23:28 | 25.73880 | -80.20828 | 8117 ft | 221 kts | 212° |
| 2026-05-03 23:28 | 25.72714 | -80.21860 | 7917 ft | 212 kts | 238° |
| 2026-05-03 23:28 | 25.72121 | -80.23341 | 7750 ft | 210 kts | 255° |
| 2026-05-03 23:29 | 25.71772 | -80.24934 | 7541 ft | 213 kts | 257° |
| 2026-05-03 23:29 | 25.71445 | -80.26551 | 7336 ft | 216 kts | 257° |
| 2026-05-03 23:29 | 25.71180 | -80.28183 | 7107 ft | 214 kts | 264° |
| 2026-05-03 23:29 | 25.71094 | -80.29815 | 6880 ft | 209 kts | 267° |
| 2026-05-03 23:30 | 25.71038 | -80.31386 | 6679 ft | 205 kts | 267° |
| 2026-05-03 23:30 | 25.70980 | -80.32964 | 6454 ft | 204 kts | 266° |
| 2026-05-03 23:30 | 25.70916 | -80.34533 | 6224 ft | 201 kts | 266° |
| 2026-05-03 23:30 | 25.70851 | -80.36051 | 6065 ft | 191 kts | 266° |
| 2026-05-03 23:31 | 25.70786 | -80.37502 | 5831 ft | 185 kts | 266° |
| 2026-05-03 23:31 | 25.70720 | -80.38916 | 5644 ft | 187 kts | 266° |
| 2026-05-03 23:31 | 25.70652 | -80.40363 | 5457 ft | 188 kts | 266° |
| 2026-05-03 23:31 | 25.70583 | -80.41812 | 5254 ft | 188 kts | 266° |
| 2026-05-03 23:32 | 25.70514 | -80.43259 | 5103 ft | 185 kts | 266° |
| 2026-05-03 23:32 | 25.70422 | -80.44675 | 5056 ft | 184 kts | 264° |
| 2026-05-03 23:32 | 25.70305 | -80.46107 | 5015 ft | 188 kts | 264° |
| 2026-05-03 23:32 | 25.70188 | -80.47561 | 5016 ft | 190 kts | 265° |
| 2026-05-03 23:33 | 25.70084 | -80.49001 | 5000 ft | 187 kts | 264° |
| 2026-05-03 23:33 | 25.69960 | -80.50430 | 4992 ft | 185 kts | 264° |
| 2026-05-03 23:33 | 25.69844 | -80.51839 | 4997 ft | 183 kts | 265° |
| 2026-05-03 23:33 | 25.69734 | -80.53248 | 4992 ft | 183 kts | 265° |
| 2026-05-03 23:34 | 25.69604 | -80.54645 | 5010 ft | 183 kts | 262° |
| 2026-05-03 23:34 | 25.69455 | -80.56051 | 5004 ft | 184 kts | 264° |
| 2026-05-03 23:34 | 25.69316 | -80.57460 | 5010 ft | 184 kts | 263° |
| 2026-05-03 23:34 | 25.69185 | -80.58875 | 5010 ft | 185 kts | 263° |
| 2026-05-03 23:35 | 25.69052 | -80.60292 | 5005 ft | 184 kts | 264° |
| 2026-05-03 23:35 | 25.68955 | -80.61712 | 5008 ft | 185 kts | 265° |
| 2026-05-03 23:35 | 25.68849 | -80.63117 | 5006 ft | 185 kts | 264° |
| 2026-05-03 23:35 | 25.68711 | -80.64539 | 5018 ft | 187 kts | 262° |
| 2026-05-03 23:36 | 25.68772 | -80.65967 | 4994 ft | 189 kts | 290° |
| 2026-05-03 23:36 | 25.69619 | -80.67065 | 5005 ft | 193 kts | 328° |
| 2026-05-03 23:36 | 25.70938 | -80.67453 | 4998 ft | 200 kts | 351° |
| 2026-05-03 23:36 | 25.72327 | -80.67571 | 4993 ft | 199 kts | 352° |
| 2026-05-03 23:37 | 25.73688 | -80.67436 | 4964 ft | 199 kts | 20° |
| 2026-05-03 23:37 | 25.74795 | -80.66458 | 5021 ft | 212 kts | 50° |
| 2026-05-03 23:37 | 25.75681 | -80.65107 | 5006 ft | 216 kts | 53° |
| 2026-05-03 23:37 | 25.76550 | -80.63765 | 4809 ft | 214 kts | 53° |
| 2026-05-03 23:38 | 25.77173 | -80.62282 | 4391 ft | 216 kts | 81° |
| 2026-05-03 23:38 | 25.77290 | -80.60657 | 4257 ft | 215 kts | 86° |
| 2026-05-03 23:38 | 25.77418 | -80.59014 | 4092 ft | 211 kts | 85° |
| 2026-05-03 23:38 | 25.77517 | -80.57440 | 3999 ft | 195 kts | 86° |
| 2026-05-03 23:39 | 25.77590 | -80.55977 | 3979 ft | 186 kts | 86° |
| 2026-05-03 23:39 | 25.77649 | -80.54563 | 3978 ft | 182 kts | 88° |
| 2026-05-03 23:39 | 25.77709 | -80.53121 | 3749 ft | 190 kts | 87° |
| 2026-05-03 23:39 | 25.77775 | -80.51645 | 3518 ft | 190 kts | 87° |
| 2026-05-03 23:40 | 25.77836 | -80.50204 | 3266 ft | 183 kts | 87° |
| 2026-05-03 23:40 | 25.77893 | -80.48834 | 3029 ft | 174 kts | 88° |
| 2026-05-03 23:40 | 25.77946 | -80.47496 | 2830 ft | 179 kts | 87° |
| 2026-05-03 23:40 | 25.78002 | -80.46133 | 2607 ft | 172 kts | 87° |
| 2026-05-03 23:41 | 25.78055 | -80.44860 | 2368 ft | 157 kts | 86° |
| 2026-05-03 23:41 | 25.78104 | -80.43687 | 2194 ft | 154 kts | 86° |
| 2026-05-03 23:41 | 25.78153 | -80.42513 | 1974 ft | 150 kts | 86° |
| 2026-05-03 23:41 | 25.78200 | -80.41366 | 1784 ft | 148 kts | 86° |
| 2026-05-03 23:42 | 25.78247 | -80.40228 | 1598 ft | 148 kts | 86° |
| 2026-05-03 23:42 | 25.78295 | -80.39085 | 1400 ft | 148 kts | 86° |
| 2026-05-03 23:42 | 25.78341 | -80.37946 | 1208 ft | 147 kts | 86° |
| 2026-05-03 23:42 | 25.78389 | -80.36814 | 1016 ft | 147 kts | 86° |
| 2026-05-03 23:43 | 25.78434 | -80.35703 | 845 ft | 144 kts | 86° |
| 2026-05-03 23:43 | 25.78479 | -80.34603 | 668 ft | 140 kts | 85° |
| 2026-05-03 23:43 | 25.78525 | -80.33512 | 500 ft | 142 kts | 85° |
| 2026-05-03 23:43 | 25.78566 | -80.32423 | 310 ft | 140 kts | 86° |
| 2026-05-03 23:44 | 25.78609 | -80.31345 | 97 ft | 138 kts | 84° |
| 2026-05-03 23:44 | 25.78661 | -80.30289 | 27 ft | 130 kts | 88° |
| 2026-05-03 23:44 | 25.78691 | -80.29536 | 25 ft | 54 kts | 87° |
| 2026-05-03 23:44 | 25.78706 | -80.29329 | 26 ft | 16 kts | 77° |
| 2026-05-03 23:45 | 25.78750 | -80.29216 | 26 ft | 16 kts | 51° |
| 2026-05-03 23:45 | 25.78783 | -80.29181 | 29 ft | 0 kts | 36° |
| 2026-05-03 23:45 | 25.78785 | -80.29180 | 28 ft | 0 kts | 34° |
| 2026-05-03 23:46 | 25.78787 | -80.29179 | 28 ft | 2 kts | 33° |
| 2026-05-03 23:46 | 25.78806 | -80.29167 | 26 ft | 4 kts | 32° |
| 2026-05-03 23:46 | 25.78822 | -80.29134 | 27 ft | 5 kts | 80° |
| 2026-05-03 23:46 | 25.78824 | -80.29094 | 28 ft | 5 kts | 86° |
| 2026-05-03 23:47 | 25.78830 | -80.29009 | 29 ft | 17 kts | 79° |
| 2026-05-03 23:47 | 25.78850 | -80.28911 | 26 ft | 13 kts | 75° |
| 2026-05-03 23:47 | 25.78865 | -80.28810 | 23 ft | 14 kts | 86° |
| 2026-05-03 23:47 | 25.78866 | -80.28792 | 23 ft | 0 kts | 86° |
| 2026-05-03 23:48 | 25.78866 | -80.28791 | 23 ft | 1 kts | 86° |
| 2026-05-03 23:48 | 25.78867 | -80.28780 | 22 ft | 2 kts | 86° |
| 2026-05-03 23:48 | 25.78868 | -80.28757 | 24 ft | 5 kts | 86° |
| 2026-05-03 23:48 | 25.78872 | -80.28662 | 23 ft | 15 kts | 88° |
| 2026-05-03 23:49 | 25.78877 | -80.28550 | 26 ft | 15 kts | 88° |
| 2026-05-03 23:49 | 25.78881 | -80.28436 | 28 ft | 15 kts | 87° |
| 2026-05-03 23:49 | 25.78886 | -80.28322 | 27 ft | 15 kts | 87° |
| 2026-05-03 23:49 | 25.78892 | -80.28209 | 27 ft | 15 kts | 85° |
| 2026-05-03 23:50 | 25.78902 | -80.28095 | 30 ft | 15 kts | 84° |
| 2026-05-03 23:50 | 25.78906 | -80.28045 | 31 ft | 8 kts | 87° |
| 2026-05-03 23:50 | 25.78881 | -80.27961 | 30 ft | 9 kts | 111° |
| 2026-05-03 23:50 | 25.78876 | -80.27943 | 30 ft | 0 kts | 103° |
| 2026-05-03 23:51 | 25.78876 | -80.27940 | 30 ft | 1 kts | 101° |
| 2026-05-03 23:51 | 25.78873 | -80.27921 | 30 ft | 4 kts | 95° |
| 2026-05-03 23:51 | 25.78873 | -80.27910 | 30 ft | 0 kts | 92° |
| 2026-05-03 23:51 | 25.78873 | -80.27905 | 30 ft | 2 kts | 90° |
| 2026-05-03 23:52 | 25.78875 | -80.27887 | 29 ft | 4 kts | 79° |
| 2026-05-03 23:52 | 25.78894 | -80.27857 | 29 ft | 5 kts | 30° |
| 2026-05-03 23:52 | 25.78928 | -80.27847 | 29 ft | 6 kts | 15° |
| 2026-05-03 23:52 | 25.78957 | -80.27838 | 29 ft | 1 kts | 17° |
| 2026-05-03 23:53 | 25.78959 | -80.27837 | 29 ft | 1 kts | 17° |
| 2026-05-03 23:53 | 25.78964 | -80.27835 | 29 ft | 1 kts | 19° |
| 2026-05-03 23:53 | 25.78966 | -80.27834 | 29 ft | 0 kts | 19° |
| 2026-05-03 23:54 | 25.78968 | -80.27834 | 29 ft | 1 kts | 19° |
| 2026-05-03 23:54 | 25.78985 | -80.27829 | 29 ft | 3 kts | 11° |
| 2026-05-03 23:54 | 25.79008 | -80.27832 | 29 ft | 3 kts | 345° |
| 2026-05-03 23:55 | 25.79029 | -80.27844 | 30 ft | 3 kts | 328° |
| 2026-05-03 23:55 | 25.79045 | -80.27861 | 30 ft | 2 kts | 314° |
| 2026-05-03 23:55 | 25.79050 | -80.27867 | 30 ft | 1 kts | 313° |
| 2026-05-03 23:55 | 25.79056 | -80.27874 | 30 ft | 1 kts | 312° |
| 2026-05-03 23:56 | 25.79058 | -80.27877 | 30 ft | 0 kts | 312° |